createdAt,value
2023-01-10T00:02:54.869Z,12.30
2023-01-10T00:06:00.768Z,8.63
2023-01-10T00:09:07.355Z,7.23
2023-01-10T00:12:31.034Z,6.47
2023-01-10T00:15:38.799Z,7.10
2023-01-10T00:18:44.998Z,5.37
2023-01-10T00:21:51.113Z,5.17
2023-01-10T00:24:57.423Z,6.27
2023-01-10T00:28:11.031Z,10.13
2023-01-10T00:31:19.021Z,7.00
2023-01-10T00:34:25.833Z,10.10
2023-01-10T00:37:32.198Z,11.13
2023-01-10T00:40:38.400Z,9.77
2023-01-10T00:43:59.475Z,13.30
2023-01-10T00:47:07.496Z,7.70
2023-01-10T00:50:13.867Z,9.60
2023-01-10T00:53:20.407Z,7.77
2023-01-10T00:56:27.004Z,8.40
2023-01-10T00:59:33.103Z,10.67
2023-01-10T01:02:40.945Z,6.07
2023-01-10T01:05:48.844Z,13.37
2023-01-10T01:08:55.362Z,8.37
2023-01-10T01:12:01.984Z,6.23
2023-01-10T01:15:09.456Z,10.60
2023-01-10T01:18:19.150Z,12.50
2023-01-10T01:21:28.345Z,7.43
2023-01-10T01:24:34.582Z,10.77
2023-01-10T01:27:41.014Z,8.77
2023-01-10T01:30:47.523Z,5.77
2023-01-10T01:33:55.463Z,12.63
2023-01-10T01:37:01.820Z,4.90
2023-01-10T01:40:09.483Z,6.63
2023-01-10T01:43:27.300Z,4.77
2023-01-10T01:46:36.286Z,6.13
2023-01-10T01:49:46.333Z,4.67
2023-01-10T01:52:55.591Z,7.67
2023-01-10T01:56:06.702Z,7.20
2023-01-10T01:59:17.112Z,5.10
2023-01-10T02:02:26.972Z,5.63
2023-01-10T02:05:37.213Z,8.40
2023-01-10T02:08:50.688Z,6.97
2023-01-10T02:11:57.552Z,8.73
2023-01-10T02:15:05.180Z,5.53
2023-01-10T02:18:12.236Z,3.03
2023-01-10T02:21:47.643Z,2.77
2023-01-10T02:25:30.868Z,4.40
2023-01-10T02:29:12.960Z,3.23
2023-01-10T02:32:43.813Z,2.73
2023-01-10T02:36:06.973Z,2.53
2023-01-10T02:39:20.364Z,3.50
2023-01-10T02:42:35.695Z,2.83
2023-01-10T02:45:48.629Z,3.57
2023-01-10T02:48:57.329Z,2.97
2023-01-10T02:52:03.566Z,2.23
2023-01-10T02:55:10.049Z,3.50
2023-01-10T02:58:32.420Z,2.47
2023-01-10T03:01:48.626Z,2.83
2023-01-10T03:05:04.994Z,1.77
2023-01-10T03:08:19.895Z,4.23
2023-01-10T03:11:41.189Z,2.77
2023-01-10T03:14:49.499Z,3.73
2023-01-10T03:17:59.504Z,4.43
2023-01-10T03:21:09.301Z,2.87
2023-01-10T03:24:20.172Z,3.33
2023-01-10T03:27:34.947Z,2.40
2023-01-10T03:30:46.829Z,12.73
2023-01-10T03:33:53.699Z,8.50
2023-01-10T03:37:08.565Z,3.27
2023-01-10T03:40:22.685Z,4.80
2023-01-10T03:44:07.913Z,7.20
2023-01-10T03:47:23.602Z,8.33
2023-01-10T03:50:31.805Z,3.67
2023-01-10T03:53:41.353Z,1.93
2023-01-10T03:56:50.026Z,10.90
2023-01-10T03:59:58.407Z,2.30
2023-01-10T04:03:04.788Z,7.23
2023-01-10T04:06:11.103Z,8.80
2023-01-10T04:09:18.702Z,8.43
2023-01-10T04:12:25.908Z,6.97
2023-01-10T04:15:32.735Z,4.67
2023-01-10T04:18:39.361Z,13.47
2023-01-10T04:21:45.754Z,10.07
2023-01-10T04:24:54.561Z,10.57
2023-01-10T04:28:00.910Z,14.90
2023-01-10T04:31:07.247Z,55.00
2023-01-10T04:34:13.849Z,48.50
2023-01-10T04:37:19.922Z,36.13
2023-01-10T04:40:27.757Z,40.67
2023-01-10T04:43:33.789Z,29.57
2023-01-10T04:46:40.197Z,36.50
2023-01-10T04:49:46.427Z,40.77
2023-01-10T04:52:52.794Z,32.83
2023-01-10T04:56:05.536Z,25.23
2023-01-10T04:59:12.211Z,29.17
2023-01-10T05:02:18.742Z,20.67
2023-01-10T05:05:25.546Z,20.80
2023-01-10T05:08:31.988Z,29.90
2023-01-10T05:11:39.831Z,33.50
2023-01-10T05:14:46.422Z,20.07
2023-01-10T05:17:59.386Z,23.70
2023-01-10T05:21:07.852Z,19.30
2023-01-10T05:24:14.092Z,47.13
2023-01-10T05:27:21.796Z,35.53
2023-01-10T05:30:28.266Z,36.67
2023-01-10T05:33:34.357Z,27.80
2023-01-10T05:36:40.802Z,12.67
2023-01-10T05:39:47.072Z,2.73
2023-01-10T05:42:54.996Z,3.53
2023-01-10T05:46:01.350Z,2.47
2023-01-10T05:49:07.871Z,3.00
2023-01-10T05:52:14.094Z,5.27
2023-01-10T05:55:20.498Z,5.23
2023-01-10T05:58:28.806Z,5.03
2023-01-10T06:01:35.546Z,14.63
2023-01-10T06:04:41.749Z,8.57
2023-01-10T06:07:48.192Z,3.73
2023-01-10T06:10:54.915Z,2.60
2023-01-10T06:14:02.666Z,2.53
2023-01-10T06:17:10.332Z,2.33
2023-01-10T06:20:17.221Z,2.43
2023-01-10T06:23:23.614Z,2.23
2023-01-10T06:26:30.240Z,4.17
2023-01-10T06:29:38.159Z,3.67
2023-01-10T06:32:44.654Z,2.70
2023-01-10T06:35:51.024Z,2.57
2023-01-10T06:38:57.345Z,3.40
2023-01-10T06:42:03.316Z,5.17
2023-01-10T06:45:12.401Z,2.93
2023-01-10T06:48:18.492Z,3.27
2023-01-10T06:51:24.524Z,4.37
2023-01-10T06:54:30.998Z,2.53
2023-01-10T06:57:38.686Z,6.13
2023-01-10T07:00:46.375Z,8.73
2023-01-10T07:03:53.022Z,4.70
2023-01-10T07:06:59.249Z,5.77
2023-01-10T07:10:06.249Z,4.73
2023-01-10T07:13:12.762Z,8.07
2023-01-10T07:16:20.788Z,5.10
2023-01-10T07:19:26.901Z,4.37
2023-01-10T07:22:33.385Z,6.37
2023-01-10T07:25:39.478Z,3.93
2023-01-10T07:28:46.277Z,10.50
2023-01-10T07:31:53.833Z,14.47
2023-01-10T07:35:00.305Z,14.10
2023-01-10T07:38:06.609Z,12.57
2023-01-10T07:41:12.724Z,19.77
2023-01-10T07:44:19.027Z,30.73
2023-01-10T07:47:28.199Z,19.53
2023-01-10T07:50:36.279Z,31.30
2023-01-10T07:53:42.632Z,23.17
2023-01-10T07:56:49.705Z,22.93
2023-01-10T07:59:55.989Z,19.27
2023-01-10T08:03:03.805Z,16.33
2023-01-10T08:06:11.815Z,14.60
2023-01-10T08:09:18.262Z,14.40
2023-01-10T08:12:26.272Z,14.87
2023-01-10T08:15:32.642Z,31.97
2023-01-10T08:18:42.634Z,40.17
2023-01-10T08:21:48.759Z,44.53
2023-01-10T08:24:54.939Z,32.07
2023-01-10T08:28:01.566Z,37.97
2023-01-10T08:31:09.361Z,39.83
2023-01-10T08:34:17.351Z,53.83
2023-01-10T08:37:23.495Z,31.57
2023-01-10T08:40:29.984Z,27.97
2023-01-10T08:43:36.344Z,31.00
2023-01-10T08:46:43.224Z,28.03
2023-01-10T08:49:51.150Z,29.70
2023-01-10T08:52:59.313Z,15.40
2023-01-10T08:56:05.906Z,20.43
2023-01-10T08:59:12.567Z,17.40
2023-01-10T09:02:18.764Z,19.10
2023-01-10T09:05:28.394Z,16.87
2023-01-10T09:08:35.248Z,16.70
2023-01-10T09:11:42.043Z,32.50
2023-01-10T09:14:49.387Z,35.97
2023-01-10T09:17:56.520Z,28.60
2023-01-10T09:21:05.806Z,20.00
2023-01-10T09:24:12.463Z,38.97
2023-01-10T09:27:19.124Z,45.50
2023-01-10T09:30:26.041Z,52.50
2023-01-10T09:33:45.651Z,40.37
2023-01-10T09:36:55.079Z,32.73
2023-01-10T09:40:01.458Z,39.13
2023-01-10T09:43:17.079Z,27.73
2023-01-10T09:46:29.366Z,14.10
2023-01-10T09:49:49.532Z,27.73
2023-01-10T09:53:04.334Z,10.77
2023-01-10T09:56:14.075Z,17.87
2023-01-10T09:59:25.064Z,9.03
2023-01-10T10:02:34.205Z,19.37
2023-01-10T10:05:40.506Z,17.07
2023-01-10T10:08:49.229Z,7.33
2023-01-10T10:12:10.809Z,16.93
2023-01-10T10:15:25.450Z,13.73
2023-01-10T10:18:42.372Z,9.77
2023-01-10T10:22:00.113Z,9.20
2023-01-10T10:25:19.770Z,12.73
2023-01-10T10:28:54.039Z,14.87
2023-01-10T10:32:21.494Z,11.43
2023-01-10T10:35:33.062Z,9.77
2023-01-10T10:38:43.664Z,23.90
2023-01-10T10:41:54.436Z,124.83
2023-01-10T10:45:05.149Z,30.93
2023-01-10T10:48:16.623Z,24.63
2023-01-10T10:51:29.103Z,12.57
2023-01-10T10:54:37.478Z,24.63
2023-01-10T10:57:59.469Z,19.93
2023-01-10T11:01:07.089Z,24.20
2023-01-10T11:04:18.236Z,15.17
2023-01-10T11:07:25.921Z,41.13
2023-01-10T11:10:36.722Z,39.33
2023-01-10T11:13:48.149Z,31.10
2023-01-10T11:16:54.527Z,39.00
2023-01-10T11:20:02.748Z,37.30
2023-01-10T11:23:10.504Z,28.23
2023-01-10T11:26:27.689Z,17.43
2023-01-10T11:29:41.002Z,32.80
2023-01-10T11:32:53.417Z,26.17
2023-01-10T11:36:03.245Z,13.93
2023-01-10T11:39:17.896Z,25.87
2023-01-10T11:42:30.642Z,28.33
2023-01-10T11:45:38.815Z,21.27
2023-01-10T11:49:05.075Z,15.40
2023-01-10T11:52:20.214Z,42.73
2023-01-10T11:55:29.252Z,28.77
2023-01-10T11:58:38.390Z,22.67
2023-01-10T12:01:49.555Z,35.23
2023-01-10T12:04:58.316Z,36.87
2023-01-10T12:08:09.700Z,19.90
2023-01-10T12:11:27.739Z,20.83
2023-01-10T12:14:33.992Z,22.40
2023-01-10T12:17:41.945Z,15.13
2023-01-10T12:20:50.693Z,13.63
2023-01-10T12:24:02.136Z,19.53
2023-01-10T12:27:12.424Z,10.67
2023-01-10T12:30:24.365Z,22.77
2023-01-10T12:33:36.138Z,15.20
2023-01-10T12:36:50.712Z,18.20
2023-01-10T12:40:02.109Z,17.47
2023-01-10T12:43:34.277Z,13.50
2023-01-10T12:47:09.261Z,15.33
2023-01-10T12:53:50.026Z,29.13
2023-01-10T12:57:00.114Z,37.93
2023-01-10T13:00:17.644Z,36.57
2023-01-10T13:03:30.928Z,31.30
2023-01-10T13:06:42.214Z,20.63
2023-01-10T13:09:50.059Z,27.97
2023-01-10T13:13:00.655Z,32.70
2023-01-10T13:16:25.899Z,30.37
2023-01-10T13:19:32.495Z,31.77
2023-01-10T13:22:40.075Z,17.30
2023-01-10T13:25:56.271Z,19.43
2023-01-10T13:29:03.991Z,24.63
2023-01-10T13:32:23.505Z,31.97
2023-01-10T13:35:38.679Z,39.43
2023-01-10T13:38:52.987Z,29.27
2023-01-10T13:42:46.063Z,23.50
2023-01-10T13:46:38.572Z,46.03
2023-01-10T13:49:45.710Z,27.57
2023-01-10T13:52:52.820Z,29.20
2023-01-10T13:55:59.203Z,24.17
2023-01-10T13:59:29.792Z,29.67
2023-01-10T14:02:46.850Z,48.90
2023-01-10T14:05:53.173Z,30.27
2023-01-10T14:09:01.904Z,21.53
2023-01-10T14:12:18.604Z,25.57
2023-01-10T14:15:29.977Z,18.07
2023-01-10T14:18:41.980Z,18.13
2023-01-10T14:21:52.955Z,30.33
2023-01-10T14:25:01.206Z,27.83
2023-01-10T14:28:21.041Z,20.10
2023-01-10T14:31:28.192Z,23.10
2023-01-10T14:34:38.977Z,33.97
2023-01-10T14:37:49.347Z,44.33
2023-01-10T14:41:00.030Z,34.60
2023-01-10T14:44:12.100Z,32.40
2023-01-10T14:47:30.176Z,18.10
2023-01-10T14:50:37.998Z,9.77
2023-01-10T14:53:44.457Z,15.33
2023-01-10T14:56:52.394Z,7.63
2023-01-10T15:00:10.747Z,9.23
2023-01-10T15:03:20.493Z,19.30
2023-01-10T15:06:28.436Z,22.40
2023-01-10T15:09:34.893Z,17.80
2023-01-10T15:12:41.159Z,13.30
2023-01-10T15:15:49.218Z,16.23
2023-01-10T15:18:58.447Z,10.37
2023-01-10T15:22:19.189Z,24.63
2023-01-10T15:25:33.608Z,23.70
2023-01-10T15:28:39.992Z,15.50
2023-01-10T15:31:46.442Z,8.10
2023-01-10T15:34:55.759Z,15.33
2023-01-10T15:38:08.964Z,13.30
2023-01-10T15:41:20.427Z,25.33
2023-01-10T15:44:37.138Z,12.43
2023-01-10T15:47:52.861Z,37.97
2023-01-10T15:51:03.766Z,32.93
2023-01-10T15:54:30.816Z,16.50
2023-01-10T15:57:37.485Z,16.00
2023-01-10T16:00:45.985Z,17.87
2023-01-10T16:03:54.143Z,26.57
2023-01-10T16:07:08.891Z,41.40
2023-01-10T16:10:21.573Z,37.53
2023-01-10T16:13:27.661Z,48.83
2023-01-10T16:16:34.094Z,53.07
2023-01-10T16:19:40.293Z,54.87
2023-01-10T16:22:48.183Z,44.43
2023-01-10T16:25:59.498Z,57.10
2023-01-10T16:29:06.005Z,66.57
2023-01-10T16:32:15.503Z,60.53
2023-01-10T16:35:22.499Z,47.63
2023-01-10T16:38:30.229Z,59.13
2023-01-10T16:41:55.294Z,34.03
2023-01-10T16:45:01.449Z,32.37
2023-01-10T16:48:07.969Z,20.37
2023-01-10T16:51:18.681Z,18.67
2023-01-10T16:54:26.772Z,16.13
2023-01-10T16:57:34.453Z,16.90
2023-01-10T17:00:42.453Z,15.73
2023-01-10T17:03:49.064Z,13.90
2023-01-10T17:06:56.762Z,20.63
2023-01-10T17:10:04.532Z,12.30
2023-01-10T17:13:12.916Z,17.67
2023-01-10T17:16:19.862Z,20.60
2023-01-10T17:19:26.440Z,19.13
2023-01-10T17:22:33.327Z,21.83
2023-01-10T17:25:39.735Z,29.57
2023-01-10T17:28:50.541Z,41.80
2023-01-10T17:31:57.002Z,70.23
2023-01-10T17:35:03.275Z,77.70
2023-01-10T17:38:13.078Z,82.13
2023-01-10T17:41:19.676Z,68.97
2023-01-10T17:44:27.684Z,53.57
2023-01-10T17:47:34.181Z,57.13
2023-01-10T17:50:40.869Z,53.60
2023-01-10T17:53:47.297Z,53.30
2023-01-10T17:56:53.719Z,44.40
2023-01-10T18:00:01.675Z,41.07
2023-01-10T18:03:08.331Z,66.17
2023-01-10T18:06:23.328Z,74.83
2023-01-10T18:09:30.440Z,91.30
2023-01-10T18:12:36.893Z,84.23
2023-01-10T18:15:46.598Z,94.27
2023-01-10T18:18:52.878Z,52.23
2023-01-10T18:21:58.967Z,36.47
2023-01-10T18:25:06.041Z,21.20
2023-01-10T18:28:12.629Z,7.20
2023-01-10T18:31:21.090Z,30.10
2023-01-10T18:34:27.770Z,24.47
2023-01-10T18:37:34.656Z,30.63
2023-01-10T18:40:42.493Z,23.50
2023-01-10T18:43:49.439Z,27.90
2023-01-10T18:46:57.223Z,23.37
2023-01-10T18:50:03.417Z,33.43
2023-01-10T18:53:09.642Z,25.00
2023-01-10T18:56:17.264Z,31.13
2023-01-10T18:59:23.805Z,34.07
2023-01-10T19:02:31.673Z,26.27
2023-01-10T19:05:38.425Z,25.77
2023-01-10T19:08:45.232Z,37.50
2023-01-10T19:11:51.817Z,57.97
2023-01-10T19:14:58.459Z,43.60
2023-01-10T19:18:06.455Z,46.90
2023-01-10T19:21:16.106Z,21.30
2023-01-10T19:24:24.616Z,12.93
2023-01-10T19:27:30.864Z,14.47
2023-01-10T19:30:37.105Z,10.80
2023-01-10T19:33:46.251Z,11.27
2023-01-10T19:36:52.626Z,18.20
2023-01-10T19:39:59.075Z,11.63
2023-01-10T19:43:05.749Z,4.37
2023-01-10T19:46:13.279Z,8.53
2023-01-10T19:49:21.621Z,1.23
2023-01-10T19:52:28.689Z,5.20
2023-01-10T19:55:35.699Z,6.90
2023-01-10T19:58:42.175Z,7.87
2023-01-10T20:01:48.910Z,4.60
2023-01-10T20:04:56.578Z,13.23
2023-01-10T20:08:03.559Z,7.93
2023-01-10T20:11:10.585Z,2.47
2023-01-10T20:14:19.190Z,3.63
2023-01-10T20:17:25.425Z,5.73
2023-01-10T20:20:33.087Z,4.20
2023-01-10T20:23:40.620Z,3.23
2023-01-10T20:26:48.599Z,10.10
2023-01-10T20:29:55.126Z,10.77
2023-01-10T20:33:01.071Z,11.77
2023-01-10T20:36:11.671Z,16.70
2023-01-10T20:39:18.095Z,10.93
2023-01-10T20:42:24.203Z,9.13
2023-01-10T20:45:30.305Z,19.93
2023-01-10T20:48:36.823Z,32.47
2023-01-10T20:51:44.641Z,25.67
2023-01-10T20:54:51.002Z,33.03
2023-01-10T20:57:57.251Z,27.23
2023-01-10T21:01:04.383Z,18.47
2023-01-10T21:04:10.985Z,13.20
2023-01-10T21:07:18.684Z,17.70
2023-01-10T21:10:25.456Z,16.63
2023-01-10T21:13:31.938Z,6.67
2023-01-10T21:16:38.240Z,6.33
2023-01-10T21:19:44.856Z,5.83
2023-01-10T21:22:52.597Z,4.60
2023-01-10T21:26:04.209Z,11.10
2023-01-10T21:29:12.989Z,2.60
2023-01-10T21:32:19.415Z,3.57
2023-01-10T21:35:25.825Z,3.63
2023-01-10T21:38:36.326Z,5.57
2023-01-10T21:42:00.375Z,4.53
2023-01-10T21:45:08.562Z,8.67
2023-01-10T21:48:14.968Z,13.80
2023-01-10T21:51:21.005Z,22.03
2023-01-10T21:54:28.828Z,4.80
2023-01-10T21:57:35.047Z,7.37
2023-01-10T22:00:41.661Z,1.60
2023-01-10T22:03:49.622Z,2.13
2023-01-10T22:06:56.359Z,5.20
2023-01-10T22:10:04.457Z,2.70
2023-01-10T22:13:10.657Z,3.00
2023-01-10T22:16:17.082Z,2.97
2023-01-10T22:19:23.503Z,1.47
2023-01-10T22:22:30.065Z,2.87
2023-01-10T22:25:38.077Z,1.33
2023-01-10T22:28:44.400Z,2.30
2023-01-10T22:31:51.318Z,1.30
2023-01-10T22:34:57.678Z,2.33
2023-01-10T22:38:03.967Z,4.57
2023-01-10T22:41:13.593Z,4.20
2023-01-10T22:44:21.926Z,1.27
2023-01-10T22:47:28.544Z,0.73
2023-01-10T22:50:35.160Z,2.10
2023-01-10T22:53:41.357Z,1.07
2023-01-10T22:56:50.044Z,1.23
2023-01-10T22:59:56.499Z,1.20
2023-01-10T23:03:03.272Z,3.60
2023-01-10T23:06:10.376Z,1.43
2023-01-10T23:09:17.361Z,1.80
2023-01-10T23:12:25.181Z,2.50
2023-01-10T23:15:32.159Z,1.47
2023-01-10T23:18:38.177Z,1.03
2023-01-10T23:21:44.485Z,1.43
2023-01-10T23:24:51.134Z,2.40
2023-01-10T23:27:58.737Z,3.70
2023-01-10T23:31:06.154Z,2.40
2023-01-10T23:34:12.653Z,3.53
2023-01-10T23:37:19.202Z,4.30
2023-01-10T23:40:25.614Z,6.13
2023-01-10T23:43:33.745Z,1.20
2023-01-10T23:46:39.844Z,1.00
2023-01-10T23:49:46.218Z,2.20
2023-01-10T23:52:52.425Z,2.13
2023-01-10T23:55:59.169Z,1.83
2023-01-10T23:59:07.200Z,1.57
